In Rescue
 
Open Full Screen Window  High Contrast Mode
Wind Gusting 00 knots
09
November 29, 2022 9:01 AM CST
Weather Information
Wind Direction
  320 °
Wind Speed
  09 kt (10 mph)
Wind Gust
  00 kt (0 mph)
Altimeter
29.76 in
Visibility
10 SM
Temperature
-04° C
25° F
Dewpoint
-09° C
16° F
Humidity
69%
1hr Rain Fall
00.00 in.
24hr Rain Fall
00.00 in.
Sky Condition
Overcast @ 5,500 ft
Broken @ 4,900 ft
Scattered @ 4,100 ft
VFR

METAR KGDB 291501Z AUTO 32009KT 10SM SCT041 BKN049 OVC055 M04/M09 A2976 RMK AO2 T10361086

FAA Disclaimer: The data displayed is for advisory purposes only and is not to be used for flight planning or operations.